sensor_id;sensor_type;location;lat;lon;timestamp;pressure;altitude;pressure_sealevel;temperature;humidity
68656;BME280;55638;51.122;13.606;2023-11-19T00:00:59;100181.91;;;3.45;59.40
68656;BME280;55638;51.122;13.606;2023-11-19T00:02:32;100173.91;;;3.45;59.55
68656;BME280;55638;51.122;13.606;2023-11-19T00:04:04;100156.31;;;3.42;59.68
68656;BME280;55638;51.122;13.606;2023-11-19T00:05:36;100163.25;;;3.45;59.58
68656;BME280;55638;51.122;13.606;2023-11-19T00:07:08;100154.41;;;3.44;59.47
68656;BME280;55638;51.122;13.606;2023-11-19T00:08:42;100148.22;;;3.43;59.76
68656;BME280;55638;51.122;13.606;2023-11-19T00:10:16;100144.75;;;3.41;59.90
68656;BME280;55638;51.122;13.606;2023-11-19T00:11:52;100144.75;;;3.41;59.74
68656;BME280;55638;51.122;13.606;2023-11-19T00:13:25;100144.75;;;3.41;59.88
68656;BME280;55638;51.122;13.606;2023-11-19T00:14:57;100131.66;;;3.37;60.02
68656;BME280;55638;51.122;13.606;2023-11-19T00:16:29;100130.75;;;3.38;60.16
68656;BME280;55638;51.122;13.606;2023-11-19T00:18:03;100134.09;;;3.41;59.86
68656;BME280;55638;51.122;13.606;2023-11-19T00:19:36;100134.88;;;3.43;59.86
68656;BME280;55638;51.122;13.606;2023-11-19T00:21:08;100135.00;;;3.42;59.85
68656;BME280;55638;51.122;13.606;2023-11-19T00:22:42;100139.44;;;3.41;60.12
68656;BME280;55638;51.122;13.606;2023-11-19T00:24:17;100133.06;;;3.44;60.00
68656;BME280;55638;51.122;13.606;2023-11-19T00:25:49;100130.59;;;3.41;59.97
68656;BME280;55638;51.122;13.606;2023-11-19T00:27:21;100120.72;;;3.43;59.98
68656;BME280;55638;51.122;13.606;2023-11-19T00:28:54;100114.44;;;3.44;60.03
68656;BME280;55638;51.122;13.606;2023-11-19T00:30:27;100111.84;;;3.42;60.23
68656;BME280;55638;51.122;13.606;2023-11-19T00:31:59;100115.28;;;3.45;60.14
68656;BME280;55638;51.122;13.606;2023-11-19T00:33:32;100118.84;;;3.45;59.96
68656;BME280;55638;51.122;13.606;2023-11-19T00:35:07;100113.31;;;3.48;59.88
68656;BME280;55638;51.122;13.606;2023-11-19T00:36:39;100120.38;;;3.49;59.73
68656;BME280;55638;51.122;13.606;2023-11-19T00:38:11;100116.84;;;3.49;59.82
68656;BME280;55638;51.122;13.606;2023-11-19T00:39:43;100123.28;;;3.45;59.96
68656;BME280;55638;51.122;13.606;2023-11-19T00:41:15;100117.88;;;3.46;59.83
68656;BME280;55638;51.122;13.606;2023-11-19T00:42:48;100112.44;;;3.48;59.98
68656;BME280;55638;51.122;13.606;2023-11-19T00:44:20;100105.41;;;3.47;60.00
68656;BME280;55638;51.122;13.606;2023-11-19T00:45:53;100105.41;;;3.47;59.88
68656;BME280;55638;51.122;13.606;2023-11-19T00:47:25;100093.91;;;3.46;59.78
68656;BME280;55638;51.122;13.606;2023-11-19T00:48:58;100103.59;;;3.47;59.80
68656;BME280;55638;51.122;13.606;2023-11-19T00:50:31;100083.31;;;3.45;59.84
68656;BME280;55638;51.122;13.606;2023-11-19T00:52:06;100082.38;;;3.46;59.84
68656;BME280;55638;51.122;13.606;2023-11-19T00:53:38;100082.38;;;3.46;59.61
68656;BME280;55638;51.122;13.606;2023-11-19T00:55:10;100087.72;;;3.46;59.56
68656;BME280;55638;51.122;13.606;2023-11-19T00:56:44;100079.88;;;3.42;59.63
68656;BME280;55638;51.122;13.606;2023-11-19T00:58:16;100077.38;;;3.39;59.62
68656;BME280;55638;51.122;13.606;2023-11-19T00:59:49;100058.72;;;3.39;59.77
68656;BME280;55638;51.122;13.606;2023-11-19T01:01:21;100052.59;;;3.37;59.64
68656;BME280;55638;51.122;13.606;2023-11-19T01:02:54;100054.38;;;3.38;59.85
68656;BME280;55638;51.122;13.606;2023-11-19T01:04:26;100044.00;;;3.32;59.71
68656;BME280;55638;51.122;13.606;2023-11-19T01:05:58;100044.00;;;3.32;59.99
68656;BME280;55638;51.122;13.606;2023-11-19T01:07:32;100026.13;;;3.34;59.72
68656;BME280;55638;51.122;13.606;2023-11-19T01:09:05;100035.06;;;3.33;59.93
68656;BME280;55638;51.122;13.606;2023-11-19T01:10:37;100033.34;;;3.32;59.85
68656;BME280;55638;51.122;13.606;2023-11-19T01:12:09;100037.78;;;3.32;59.87
68656;BME280;55638;51.122;13.606;2023-11-19T01:13:44;100025.44;;;3.31;59.81
68656;BME280;55638;51.122;13.606;2023-11-19T01:15:16;100022.69;;;3.32;59.82
68656;BME280;55638;51.122;13.606;2023-11-19T01:16:50;100024.47;;;3.32;59.88
68656;BME280;55638;51.122;13.606;2023-11-19T01:18:23;100017.38;;;3.32;59.67
68656;BME280;55638;51.122;13.606;2023-11-19T01:19:55;100014.03;;;3.29;59.82
68656;BME280;55638;51.122;13.606;2023-11-19T01:21:27;100015.63;;;3.31;59.66
68656;BME280;55638;51.122;13.606;2023-11-19T01:22:59;100020.09;;;3.31;59.89
68656;BME280;55638;51.122;13.606;2023-11-19T01:24:32;100019.25;;;3.30;60.01
68656;BME280;55638;51.122;13.606;2023-11-19T01:26:04;100016.59;;;3.30;59.79
68656;BME280;55638;51.122;13.606;2023-11-19T01:27:37;100012.97;;;3.31;59.83
68656;BME280;55638;51.122;13.606;2023-11-19T01:29:09;100001.44;;;3.31;59.83
68656;BME280;55638;51.122;13.606;2023-11-19T01:30:41;99996.97;;;3.31;60.00
68656;BME280;55638;51.122;13.606;2023-11-19T01:32:13;99999.56;;;3.33;59.96
68656;BME280;55638;51.122;13.606;2023-11-19T01:33:45;99990.56;;;3.35;59.84
68656;BME280;55638;51.122;13.606;2023-11-19T01:35:18;99982.47;;;3.37;59.86
68656;BME280;55638;51.122;13.606;2023-11-19T01:36:50;99978.94;;;3.36;59.91
68656;BME280;55638;51.122;13.606;2023-11-19T01:38:22;99971.91;;;3.35;59.95
68656;BME280;55638;51.122;13.606;2023-11-19T01:39:54;99965.78;;;3.33;60.01
68656;BME280;55638;51.122;13.606;2023-11-19T01:41:36;99966.75;;;3.32;59.98
68656;BME280;55638;51.122;13.606;2023-11-19T01:43:08;99959.50;;;3.34;59.88
68656;BME280;55638;51.122;13.606;2023-11-19T01:45:00;99955.13;;;3.33;60.00
68656;BME280;55638;51.122;13.606;2023-11-19T01:46:34;99953.25;;;3.35;60.13
68656;BME280;55638;51.122;13.606;2023-11-19T01:48:07;99944.31;;;3.36;59.99
68656;BME280;55638;51.122;13.606;2023-11-19T01:49:43;99938.03;;;3.37;60.00
68656;BME280;55638;51.122;13.606;2023-11-19T01:51:16;99938.97;;;3.36;59.92
68656;BME280;55638;51.122;13.606;2023-11-19T01:52:48;99933.72;;;3.35;60.05
68656;BME280;55638;51.122;13.606;2023-11-19T01:54:20;99933.56;;;3.38;60.05
68656;BME280;55638;51.122;13.606;2023-11-19T01:55:52;99926.25;;;3.41;60.15
68656;BME280;55638;51.122;13.606;2023-11-19T01:57:24;99919.22;;;3.40;60.00
68656;BME280;55638;51.122;13.606;2023-11-19T01:58:56;99920.06;;;3.41;60.00
68656;BME280;55638;51.122;13.606;2023-11-19T02:00:30;99914.56;;;3.44;60.01
68656;BME280;55638;51.122;13.606;2023-11-19T02:02:02;99912.00;;;3.42;59.99
68656;BME280;55638;51.122;13.606;2023-11-19T02:03:35;99907.53;;;3.43;60.00
68656;BME280;55638;51.122;13.606;2023-11-19T02:05:07;99893.38;;;3.42;60.12
68656;BME280;55638;51.122;13.606;2023-11-19T02:06:40;99893.19;;;3.46;59.99
68656;BME280;55638;51.122;13.606;2023-11-19T02:08:13;99897.72;;;3.43;60.10
68656;BME280;55638;51.122;13.606;2023-11-19T02:09:46;99891.63;;;3.41;60.35
68656;BME280;55638;51.122;13.606;2023-11-19T02:11:18;99884.34;;;3.45;60.27
68656;BME280;55638;51.122;13.606;2023-11-19T02:12:50;99873.56;;;3.47;60.32
68656;BME280;55638;51.122;13.606;2023-11-19T02:14:25;99885.00;;;3.49;60.09
68656;BME280;55638;51.122;13.606;2023-11-19T02:15:57;99875.09;;;3.51;59.97
68656;BME280;55638;51.122;13.606;2023-11-19T02:17:30;99867.09;;;3.51;60.07
68656;BME280;55638;51.122;13.606;2023-11-19T02:19:06;99856.44;;;3.51;60.18
68656;BME280;55638;51.122;13.606;2023-11-19T02:20:38;99848.38;;;3.52;60.00
68656;BME280;55638;51.122;13.606;2023-11-19T02:22:10;99845.78;;;3.51;60.20
68656;BME280;55638;51.122;13.606;2023-11-19T02:23:42;99845.72;;;3.52;60.05
68656;BME280;55638;51.122;13.606;2023-11-19T02:25:29;99836.88;;;3.52;60.15
68656;BME280;55638;51.122;13.606;2023-11-19T02:27:29;99827.91;;;3.53;60.21
68656;BME280;55638;51.122;13.606;2023-11-19T02:29:02;99829.63;;;3.54;60.10
68656;BME280;55638;51.122;13.606;2023-11-19T02:30:39;99819.13;;;3.51;60.34
68656;BME280;55638;51.122;13.606;2023-11-19T02:32:10;99824.47;;;3.51;60.35
68656;BME280;55638;51.122;13.606;2023-11-19T02:33:45;99826.22;;;3.52;60.31
68656;BME280;55638;51.122;13.606;2023-11-19T02:35:17;99822.66;;;3.51;60.32
68656;BME280;55638;51.122;13.606;2023-11-19T02:36:49;99825.31;;;3.51;60.52
68656;BME280;55638;51.122;13.606;2023-11-19T02:38:21;99816.28;;;3.54;60.24
68656;BME280;55638;51.122;13.606;2023-11-19T02:39:53;99818.03;;;3.55;60.47
68656;BME280;55638;51.122;13.606;2023-11-19T02:41:25;99817.91;;;3.56;60.48
68656;BME280;55638;51.122;13.606;2023-11-19T02:42:58;99818.59;;;3.60;60.31
68656;BME280;55638;51.122;13.606;2023-11-19T02:44:30;99815.94;;;3.60;60.63
68656;BME280;55638;51.122;13.606;2023-11-19T02:46:03;99813.94;;;3.63;60.47
68656;BME280;55638;51.122;13.606;2023-11-19T02:47:42;99810.13;;;3.68;60.48
68656;BME280;55638;51.122;13.606;2023-11-19T02:49:14;99807.38;;;3.69;60.51
68656;BME280;55638;51.122;13.606;2023-11-19T02:50:47;99801.00;;;3.72;60.56
68656;BME280;55638;51.122;13.606;2023-11-19T02:52:19;99805.19;;;3.76;60.40
68656;BME280;55638;51.122;13.606;2023-11-19T02:53:51;99796.34;;;3.75;60.74
68656;BME280;55638;51.122;13.606;2023-11-19T02:55:24;99790.91;;;3.77;60.56
68656;BME280;55638;51.122;13.606;2023-11-19T02:56:56;99775.88;;;3.76;60.71
68656;BME280;55638;51.122;13.606;2023-11-19T02:58:31;99777.31;;;3.81;60.64
68656;BME280;55638;51.122;13.606;2023-11-19T03:00:04;99778.03;;;3.83;60.65
68656;BME280;55638;51.122;13.606;2023-11-19T03:01:44;99767.00;;;3.89;60.60
68656;BME280;55638;51.122;13.606;2023-11-19T03:03:22;99769.66;;;3.89;60.56
68656;BME280;55638;51.122;13.606;2023-11-19T03:04:54;99762.31;;;3.93;60.57
68656;BME280;55638;51.122;13.606;2023-11-19T03:06:27;99751.38;;;3.98;60.55
68656;BME280;55638;51.122;13.606;2023-11-19T03:08:00;99749.38;;;4.01;60.41
68656;BME280;55638;51.122;13.606;2023-11-19T03:09:32;99743.94;;;4.03;60.31
68656;BME280;55638;51.122;13.606;2023-11-19T03:11:06;99747.47;;;4.03;60.34
68656;BME280;55638;51.122;13.606;2023-11-19T03:12:38;99730.53;;;4.04;60.25
68656;BME280;55638;51.122;13.606;2023-11-19T03:14:10;99732.22;;;4.05;60.35
68656;BME280;55638;51.122;13.606;2023-11-19T03:15:42;99739.19;;;4.08;60.41
68656;BME280;55638;51.122;13.606;2023-11-19T03:17:14;99728.50;;;4.08;60.22
68656;BME280;55638;51.122;13.606;2023-11-19T03:18:46;99730.22;;;4.09;60.26
68656;BME280;55638;51.122;13.606;2023-11-19T03:20:18;99725.72;;;4.09;60.47
68656;BME280;55638;51.122;13.606;2023-11-19T03:21:50;99718.19;;;4.16;60.20
68656;BME280;55638;51.122;13.606;2023-11-19T03:23:22;99706.97;;;4.11;60.43
68656;BME280;55638;51.122;13.606;2023-11-19T03:24:54;99698.00;;;4.12;60.17
68656;BME280;55638;51.122;13.606;2023-11-19T03:26:27;99698.66;;;4.16;60.39
68656;BME280;55638;51.122;13.606;2023-11-19T03:28:00;99698.59;;;4.17;60.21
68656;BME280;55638;51.122;13.606;2023-11-19T03:29:35;99707.44;;;4.18;60.10
68656;BME280;55638;51.122;13.606;2023-11-19T03:31:07;99705.53;;;4.20;60.08
68656;BME280;55638;51.122;13.606;2023-11-19T03:32:40;99694.63;;;4.23;60.11
68656;BME280;55638;51.122;13.606;2023-11-19T03:34:12;99692.09;;;4.21;60.23
68656;BME280;55638;51.122;13.606;2023-11-19T03:35:44;99696.56;;;4.21;60.01
68656;BME280;55638;51.122;13.606;2023-11-19T03:37:17;99689.63;;;4.18;60.20
68656;BME280;55638;51.122;13.606;2023-11-19T03:38:49;99680.56;;;4.21;59.97
68656;BME280;55638;51.122;13.606;2023-11-19T03:40:22;99683.13;;;4.22;59.96
68656;BME280;55638;51.122;13.606;2023-11-19T03:41:54;99672.44;;;4.22;60.04
68656;BME280;55638;51.122;13.606;2023-11-19T03:43:26;99668.84;;;4.23;60.15
68656;BME280;55638;51.122;13.606;2023-11-19T03:44:59;99671.41;;;4.25;59.94
68656;BME280;55638;51.122;13.606;2023-11-19T03:46:31;99665.22;;;4.24;59.96
68656;BME280;55638;51.122;13.606;2023-11-19T03:48:03;99664.34;;;4.24;59.95
68656;BME280;55638;51.122;13.606;2023-11-19T03:49:35;99657.09;;;4.26;60.03
68656;BME280;55638;51.122;13.606;2023-11-19T03:51:07;99654.53;;;4.24;59.91
68656;BME280;55638;51.122;13.606;2023-11-19T03:52:39;99651.75;;;4.26;60.14
68656;BME280;55638;51.122;13.606;2023-11-19T03:54:15;99654.34;;;4.27;59.95
68656;BME280;55638;51.122;13.606;2023-11-19T03:55:47;99650.91;;;4.25;59.91
68656;BME280;55638;51.122;13.606;2023-11-19T03:57:18;99646.34;;;4.27;60.03
68656;BME280;55638;51.122;13.606;2023-11-19T03:58:50;99637.69;;;4.24;60.12
68656;BME280;55638;51.122;13.606;2023-11-19T04:00:23;99634.81;;;4.27;60.06
68656;BME280;55638;51.122;13.606;2023-11-19T04:01:55;99625.00;;;4.27;60.16
68656;BME280;55638;51.122;13.606;2023-11-19T04:03:28;99622.31;;;4.27;59.97
68656;BME280;55638;51.122;13.606;2023-11-19T04:05:00;99617.72;;;4.29;60.19
68656;BME280;55638;51.122;13.606;2023-11-19T04:06:32;99618.47;;;4.31;60.02
68656;BME280;55638;51.122;13.606;2023-11-19T04:08:04;99626.50;;;4.31;60.01
68656;BME280;55638;51.122;13.606;2023-11-19T04:09:37;99623.81;;;4.31;60.12
68656;BME280;55638;51.122;13.606;2023-11-19T04:11:11;99630.00;;;4.32;59.86
68656;BME280;55638;51.122;13.606;2023-11-19T04:12:43;99633.44;;;4.34;60.09
68656;BME280;55638;51.122;13.606;2023-11-19T04:14:15;99626.28;;;4.34;59.93
68656;BME280;55638;51.122;13.606;2023-11-19T04:15:50;99629.91;;;4.33;60.01
68656;BME280;55638;51.122;13.606;2023-11-19T04:17:23;99631.75;;;4.33;59.90
68656;BME280;55638;51.122;13.606;2023-11-19T04:18:55;99624.59;;;4.33;59.94
68656;BME280;55638;51.122;13.606;2023-11-19T04:20:28;99627.25;;;4.33;59.95
68656;BME280;55638;51.122;13.606;2023-11-19T04:22:00;99611.34;;;4.32;59.98
68656;BME280;55638;51.122;13.606;2023-11-19T04:23:32;99617.50;;;4.32;59.95
68656;BME280;55638;51.122;13.606;2023-11-19T04:25:04;99618.47;;;4.31;60.07
68656;BME280;55638;51.122;13.606;2023-11-19T04:26:42;99619.66;;;4.27;60.24
68656;BME280;55638;51.122;13.606;2023-11-19T04:28:17;99616.03;;;4.28;60.09
68656;BME280;55638;51.122;13.606;2023-11-19T04:29:49;99618.88;;;4.25;60.21
68656;BME280;55638;51.122;13.606;2023-11-19T04:31:22;99616.22;;;4.25;60.26
68656;BME280;55638;51.122;13.606;2023-11-19T04:32:57;99603.94;;;4.23;60.25
68656;BME280;55638;51.122;13.606;2023-11-19T04:34:29;99595.28;;;4.19;60.30
68656;BME280;55638;51.122;13.606;2023-11-19T04:36:01;99596.38;;;4.17;60.44
68656;BME280;55638;51.122;13.606;2023-11-19T04:37:34;99588.25;;;4.18;60.39
68656;BME280;55638;51.122;13.606;2023-11-19T04:39:06;99586.63;;;4.16;60.34
68656;BME280;55638;51.122;13.606;2023-11-19T04:40:41;99585.03;;;4.13;60.53
68656;BME280;55638;51.122;13.606;2023-11-19T04:42:13;99583.31;;;4.12;60.73
68656;BME280;55638;51.122;13.606;2023-11-19T04:43:49;99580.84;;;4.09;60.76
68656;BME280;55638;51.122;13.606;2023-11-19T04:45:21;99577.34;;;4.08;60.66
68656;BME280;55638;51.122;13.606;2023-11-19T04:46:53;99572.19;;;4.05;60.82
68656;BME280;55638;51.122;13.606;2023-11-19T04:48:25;99565.25;;;4.03;61.27
68656;BME280;55638;51.122;13.606;2023-11-19T04:49:57;99565.25;;;4.03;60.94
68656;BME280;55638;51.122;13.606;2023-11-19T04:51:29;99566.41;;;3.99;61.31
68656;BME280;55638;51.122;13.606;2023-11-19T04:53:01;99569.09;;;3.99;61.27
68656;BME280;55638;51.122;13.606;2023-11-19T04:54:33;99558.63;;;3.96;61.38
68656;BME280;55638;51.122;13.606;2023-11-19T04:56:09;99556.94;;;3.95;61.53
68656;BME280;55638;51.122;13.606;2023-11-19T04:57:41;99559.66;;;3.93;61.68
68656;BME280;55638;51.122;13.606;2023-11-19T04:59:13;99547.19;;;3.94;61.44
68656;BME280;55638;51.122;13.606;2023-11-19T05:00:45;99546.34;;;3.93;61.45
68656;BME280;55638;51.122;13.606;2023-11-19T05:02:17;99544.75;;;3.91;61.57
68656;BME280;55638;51.122;13.606;2023-11-19T05:03:49;99543.03;;;3.89;61.51
68656;BME280;55638;51.122;13.606;2023-11-19T05:05:21;99542.28;;;3.87;61.72
68656;BME280;55638;51.122;13.606;2023-11-19T05:06:53;99538.97;;;3.84;61.86
68656;BME280;55638;51.122;13.606;2023-11-19T05:08:25;99548.03;;;3.81;62.07
68656;BME280;55638;51.122;13.606;2023-11-19T05:09:57;99543.44;;;3.83;62.05
68656;BME280;55638;51.122;13.606;2023-11-19T05:11:30;99547.06;;;3.82;62.01
68656;BME280;55638;51.122;13.606;2023-11-19T05:13:02;99537.38;;;3.81;62.06
68656;BME280;55638;51.122;13.606;2023-11-19T05:14:34;99533.84;;;3.81;62.26
68656;BME280;55638;51.122;13.606;2023-11-19T05:16:06;99536.59;;;3.79;62.31
68656;BME280;55638;51.122;13.606;2023-11-19T05:17:38;99540.22;;;3.78;62.39
68656;BME280;55638;51.122;13.606;2023-11-19T05:19:10;99530.41;;;3.79;62.44
68656;BME280;55638;51.122;13.606;2023-11-19T05:20:42;99527.84;;;3.77;62.54
68656;BME280;55638;51.122;13.606;2023-11-19T05:22:14;99528.72;;;3.78;62.56
68656;BME280;55638;51.122;13.606;2023-11-19T05:23:46;99528.50;;;3.81;62.36
68656;BME280;55638;51.122;13.606;2023-11-19T05:25:18;99520.59;;;3.79;62.41
68656;BME280;55638;51.122;13.606;2023-11-19T05:26:51;99515.38;;;3.78;62.52
68656;BME280;55638;51.122;13.606;2023-11-19T05:28:23;99517.16;;;3.77;62.54
68656;BME280;55638;51.122;13.606;2023-11-19T05:29:56;99515.28;;;3.79;62.60
68656;BME280;55638;51.122;13.606;2023-11-19T05:31:28;99511.00;;;3.77;62.48
68656;BME280;55638;51.122;13.606;2023-11-19T05:33:00;99521.38;;;3.81;62.36
68656;BME280;55638;51.122;13.606;2023-11-19T05:34:32;99523.06;;;3.82;62.37
68656;BME280;55638;51.122;13.606;2023-11-19T05:36:05;99515.06;;;3.82;62.51
68656;BME280;55638;51.122;13.606;2023-11-19T05:37:37;99507.19;;;3.81;62.34
68656;BME280;55638;51.122;13.606;2023-11-19T05:39:10;99513.44;;;3.80;62.63
68656;BME280;55638;51.122;13.606;2023-11-19T05:40:43;99509.84;;;3.81;62.52
68656;BME280;55638;51.122;13.606;2023-11-19T05:42:15;99502.91;;;3.78;62.75
68656;BME280;55638;51.122;13.606;2023-11-19T05:43:47;99517.84;;;3.81;62.57
68656;BME280;55638;51.122;13.606;2023-11-19T05:45:19;99509.41;;;3.74;63.11
68656;BME280;55638;51.122;13.606;2023-11-19T05:46:51;99513.56;;;3.78;62.84
68656;BME280;55638;51.122;13.606;2023-11-19T05:48:25;99510.91;;;3.78;63.07
68656;BME280;55638;51.122;13.606;2023-11-19T05:49:57;99495.84;;;3.77;63.18
68656;BME280;55638;51.122;13.606;2023-11-19T05:51:29;99488.59;;;3.79;62.84
68656;BME280;55638;51.122;13.606;2023-11-19T05:53:01;99493.19;;;3.77;62.89
68656;BME280;55638;51.122;13.606;2023-11-19T05:54:33;99491.28;;;3.79;62.88
68656;BME280;55638;51.122;13.606;2023-11-19T05:56:09;99492.03;;;3.81;63.03
68656;BME280;55638;51.122;13.606;2023-11-19T05:57:41;99493.84;;;3.81;62.96
68656;BME280;55638;51.122;13.606;2023-11-19T05:59:16;99496.59;;;3.79;63.01
68656;BME280;55638;51.122;13.606;2023-11-19T06:00:49;99483.19;;;3.81;62.86
68656;BME280;55638;51.122;13.606;2023-11-19T06:02:22;99475.19;;;3.81;63.05
68656;BME280;55638;51.122;13.606;2023-11-19T06:03:54;99463.66;;;3.80;63.31
68656;BME280;55638;51.122;13.606;2023-11-19T06:05:27;99465.38;;;3.81;63.27
68656;BME280;55638;51.122;13.606;2023-11-19T06:06:59;99477.75;;;3.82;63.20
68656;BME280;55638;51.122;13.606;2023-11-19T06:08:31;99461.94;;;3.79;63.58
68656;BME280;55638;51.122;13.606;2023-11-19T06:10:03;99459.28;;;3.79;63.37
68656;BME280;55638;51.122;13.606;2023-11-19T06:11:37;99453.19;;;3.77;63.61
68656;BME280;55638;51.122;13.606;2023-11-19T06:13:09;99453.00;;;3.80;63.47
68656;BME280;55638;51.122;13.606;2023-11-19T06:14:43;99438.72;;;3.81;63.38
68656;BME280;55638;51.122;13.606;2023-11-19T06:16:14;99433.41;;;3.81;63.49
68656;BME280;55638;51.122;13.606;2023-11-19T06:17:47;99433.19;;;3.84;63.15
68656;BME280;55638;51.122;13.606;2023-11-19T06:19:19;99428.72;;;3.85;63.20
68656;BME280;55638;51.122;13.606;2023-11-19T06:20:51;99428.59;;;3.86;63.16
68656;BME280;55638;51.122;13.606;2023-11-19T06:22:23;99431.25;;;3.86;63.29
68656;BME280;55638;51.122;13.606;2023-11-19T06:23:55;99444.50;;;3.88;63.38
68656;BME280;55638;51.122;13.606;2023-11-19T06:25:27;99434.69;;;3.88;63.51
68656;BME280;55638;51.122;13.606;2023-11-19T06:26:59;99436.28;;;3.91;63.30
68656;BME280;55638;51.122;13.606;2023-11-19T06:28:31;99433.72;;;3.89;63.39
68656;BME280;55638;51.122;13.606;2023-11-19T06:30:04;99445.13;;;3.92;63.39
68656;BME280;55638;51.122;13.606;2023-11-19T06:31:36;99426.47;;;3.92;63.46
68656;BME280;55638;51.122;13.606;2023-11-19T06:33:08;99434.34;;;3.93;63.52
68656;BME280;55638;51.122;13.606;2023-11-19T06:34:41;99426.16;;;3.96;63.48
68656;BME280;55638;51.122;13.606;2023-11-19T06:36:16;99423.41;;;3.98;63.46
68656;BME280;55638;51.122;13.606;2023-11-19T06:37:48;99443.00;;;3.97;63.64
68656;BME280;55638;51.122;13.606;2023-11-19T06:39:20;99444.09;;;3.94;63.69
68656;BME280;55638;51.122;13.606;2023-11-19T06:40:52;99436.59;;;3.99;63.43
68656;BME280;55638;51.122;13.606;2023-11-19T06:42:25;99437.47;;;4.00;63.58
68656;BME280;55638;51.122;13.606;2023-11-19T06:43:57;99430.22;;;4.02;63.52
68656;BME280;55638;51.122;13.606;2023-11-19T06:45:29;99430.97;;;4.04;63.81
68656;BME280;55638;51.122;13.606;2023-11-19T06:47:01;99419.13;;;4.08;63.48
68656;BME280;55638;51.122;13.606;2023-11-19T06:48:33;99423.28;;;4.12;63.66
68656;BME280;55638;51.122;13.606;2023-11-19T06:50:06;99416.03;;;4.14;63.53
68656;BME280;55638;51.122;13.606;2023-11-19T06:51:42;99429.16;;;4.17;63.89
68656;BME280;55638;51.122;13.606;2023-11-19T06:53:14;99414.00;;;4.18;64.01
68656;BME280;55638;51.122;13.606;2023-11-19T06:54:47;99428.00;;;4.21;64.15
68656;BME280;55638;51.122;13.606;2023-11-19T06:56:20;99413.47;;;4.25;64.00
68656;BME280;55638;51.122;13.606;2023-11-19T06:57:53;99420.41;;;4.28;64.01
68656;BME280;55638;51.122;13.606;2023-11-19T06:59:25;99416.56;;;4.32;64.09
68656;BME280;55638;51.122;13.606;2023-11-19T07:00:57;99413.81;;;4.33;64.41
68656;BME280;55638;51.122;13.606;2023-11-19T07:02:28;99413.59;;;4.36;64.19
68656;BME280;55638;51.122;13.606;2023-11-19T07:04:00;99416.03;;;4.40;64.14
68656;BME280;55638;51.122;13.606;2023-11-19T07:05:39;99414.88;;;4.44;63.97
68656;BME280;55638;51.122;13.606;2023-11-19T07:07:11;99430.66;;;4.47;64.09
68656;BME280;55638;51.122;13.606;2023-11-19T07:08:43;99428.72;;;4.49;64.33
68656;BME280;55638;51.122;13.606;2023-11-19T07:10:16;99433.84;;;4.52;63.72
68656;BME280;55638;51.122;13.606;2023-11-19T07:11:48;99421.25;;;4.54;63.84
68656;BME280;55638;51.122;13.606;2023-11-19T07:13:23;99436.19;;;4.56;63.67
68656;BME280;55638;51.122;13.606;2023-11-19T07:14:55;99427.13;;;4.59;63.87
68656;BME280;55638;51.122;13.606;2023-11-19T07:16:27;99436.84;;;4.60;63.95
68656;BME280;55638;51.122;13.606;2023-11-19T07:17:59;99439.28;;;4.63;63.70
68656;BME280;55638;51.122;13.606;2023-11-19T07:19:33;99442.72;;;4.65;63.73
68656;BME280;55638;51.122;13.606;2023-11-19T07:21:07;99448.78;;;4.67;63.82
68656;BME280;55638;51.122;13.606;2023-11-19T07:22:45;99449.53;;;4.69;64.11
68656;BME280;55638;51.122;13.606;2023-11-19T07:24:20;99461.69;;;4.73;64.14
68656;BME280;55638;51.122;13.606;2023-11-19T07:25:53;99459.88;;;4.74;64.46
68656;BME280;55638;51.122;13.606;2023-11-19T07:27:25;99463.19;;;4.77;64.62
68656;BME280;55638;51.122;13.606;2023-11-19T07:28:57;99451.34;;;4.81;64.60
68656;BME280;55638;51.122;13.606;2023-11-19T07:30:29;99439.47;;;4.86;64.63
68656;BME280;55638;51.122;13.606;2023-11-19T07:32:01;99450.44;;;4.94;64.38
68656;BME280;55638;51.122;13.606;2023-11-19T07:33:33;99439.53;;;4.97;64.67
68656;BME280;55638;51.122;13.606;2023-11-19T07:35:06;99435.69;;;5.01;64.78
68656;BME280;55638;51.122;13.606;2023-11-19T07:36:38;99427.44;;;5.04;65.24
68656;BME280;55638;51.122;13.606;2023-11-19T07:38:10;99438.44;;;5.12;65.57
68656;BME280;55638;51.122;13.606;2023-11-19T07:39:42;99436.28;;;5.17;65.61
68656;BME280;55638;51.122;13.606;2023-11-19T07:41:15;99423.22;;;5.25;65.97
68656;BME280;55638;51.122;13.606;2023-11-19T07:42:47;99420.97;;;5.32;66.20
68656;BME280;55638;51.122;13.606;2023-11-19T07:44:21;99423.06;;;5.40;66.10
68656;BME280;55638;51.122;13.606;2023-11-19T07:45:53;99424.19;;;5.48;66.14
68656;BME280;55638;51.122;13.606;2023-11-19T07:47:26;99429.94;;;5.55;66.35
68656;BME280;55638;51.122;13.606;2023-11-19T07:48:58;99423.69;;;5.67;66.17
68656;BME280;55638;51.122;13.606;2023-11-19T07:50:29;99417.75;;;5.75;66.32
68656;BME280;55638;51.122;13.606;2023-11-19T07:52:03;99404.66;;;5.83;66.45
68656;BME280;55638;51.122;13.606;2023-11-19T07:53:51;99427.91;;;5.94;66.31
68656;BME280;55638;51.122;13.606;2023-11-19T07:55:23;99424.53;;;6.03;66.37
68656;BME280;55638;51.122;13.606;2023-11-19T07:56:55;99413.13;;;6.12;66.17
68656;BME280;55638;51.122;13.606;2023-11-19T07:58:27;99428.34;;;6.23;65.82
68656;BME280;55638;51.122;13.606;2023-11-19T07:59:59;99430.53;;;6.29;65.73
68656;BME280;55638;51.122;13.606;2023-11-19T08:01:43;99409.13;;;6.40;65.32
68656;BME280;55638;51.122;13.606;2023-11-19T08:03:15;99426.53;;;6.46;65.38
68656;BME280;55638;51.122;13.606;2023-11-19T08:04:47;99435.91;;;6.52;65.31
68656;BME280;55638;51.122;13.606;2023-11-19T08:06:22;99426.66;;;6.56;65.31
68656;BME280;55638;51.122;13.606;2023-11-19T08:07:54;99433.38;;;6.61;65.18
68656;BME280;55638;51.122;13.606;2023-11-19T08:09:25;99431.06;;;6.68;65.08
68656;BME280;55638;51.122;13.606;2023-11-19T08:10:57;99427.16;;;6.72;65.07